Time;durP1;ratioP1;P1;durP2;ratioP2;P2;SDS_P1;SDS_P2;PMS_P1;PMS_P2;Temp;Humidity;BMP_temperature;BMP_pressure;BME280_temperature;BME280_humidity;BME280_pressure;Samples;Min_cycle;Max_cycle;Signal;HPM_P1;HPM_P2
2024/02/19 00:01:00;;;;;;;2.00;1.23;;;;;;;;;;6115755;29;20303;-61
2024/02/19 00:04:04;;;;;;;2.30;0.90;;;;;;;;;;6114836;29;20288;-60
2024/02/19 00:07:09;;;;;;;2.40;1.53;;;;;;;;;;6114666;29;20298;-61
2024/02/19 00:10:13;;;;;;;1.23;1.00;;;;;;;;;;6114732;29;20311;-61
2024/02/19 00:13:18;;;;;;;2.00;0.70;;;;;;;;;;6114006;29;20497;-60
2024/02/19 00:16:22;;;;;;;1.10;0.90;;;;;;;;;;6114769;29;20391;-61
2024/02/19 00:19:26;;;;;;;1.43;1.03;;;;;;;;;;6114009;29;20302;-61
2024/02/19 00:22:31;;;;;;;1.23;0.90;;;;;;;;;;6113479;29;20484;-61
2024/02/19 00:25:35;;;;;;;0.90;0.90;;;;;;;;;;6114696;29;20306;-61
2024/02/19 00:28:39;;;;;;;1.70;0.93;;;;;;;;;;6113993;29;20386;-62
2024/02/19 00:31:43;;;;;;;3.90;0.90;;;;;;;;;;6115140;29;20568;-61
2024/02/19 00:34:47;;;;;;;1.00;1.00;;;;;;;;;;6113981;29;20288;-61
2024/02/19 00:37:52;;;;;;;0.97;0.80;;;;;;;;;;6113189;29;20257;-61
2024/02/19 00:40:56;;;;;;;1.23;0.90;;;;;;;;;;6114439;29;20560;-61
2024/02/19 00:44:00;;;;;;;5.43;1.20;;;;;;;;;;6099716;29;20300;-61
2024/02/19 00:47:04;;;;;;;0.93;0.87;;;;;;;;;;6090304;29;20332;-61
2024/02/19 00:50:08;;;;;;;0.90;0.90;;;;;;;;;;6090226;29;22057;-62
2024/02/19 00:53:15;;;;;;;1.17;0.90;;;;;;;;;;6116574;29;20417;-61
2024/02/19 00:56:18;;;;;;;3.20;0.90;;;;;;;;;;6137617;29;20303;-61
2024/02/19 00:59:22;;;;;;;1.10;1.00;;;;;;;;;;6136166;29;20591;-61
2024/02/19 01:02:26;;;;;;;0.90;0.90;;;;;;;;;;6137378;29;20304;-62
2024/02/19 01:05:32;;;;;;;2.20;1.00;;;;;;;;;;6137409;29;20295;-61
2024/02/19 01:08:38;;;;;;;0.90;0.90;;;;;;;;;;6137186;29;20295;-60
2024/02/19 01:11:42;;;;;;;0.80;0.80;;;;;;;;;;6136810;29;20299;-61
2024/02/19 01:14:46;;;;;;;3.50;1.10;;;;;;;;;;6137054;29;20310;-61
2024/02/19 01:17:50;;;;;;;3.50;0.80;;;;;;;;;;6137131;29;20386;-60
2024/02/19 01:20:55;;;;;;;2.83;0.83;;;;;;;;;;6137084;29;20294;-60
2024/02/19 01:24:01;;;;;;;1.20;1.20;;;;;;;;;;6136221;29;20300;-61
2024/02/19 01:27:06;;;;;;;3.33;0.93;;;;;;;;;;6136867;29;20290;-60
2024/02/19 01:30:11;;;;;;;0.80;0.80;;;;;;;;;;6136396;29;20298;-60
2024/02/19 01:33:15;;;;;;;1.33;0.70;;;;;;;;;;6135455;29;20351;-60
2024/02/19 01:36:19;;;;;;;3.50;1.00;;;;;;;;;;6136939;29;20305;-61
2024/02/19 01:39:24;;;;;;;0.83;0.80;;;;;;;;;;6136387;29;20295;-61
2024/02/19 01:42:29;;;;;;;1.17;0.83;;;;;;;;;;6135925;29;20298;-61
2024/02/19 01:45:33;;;;;;;1.67;1.57;;;;;;;;;;6136415;29;20314;-60
2024/02/19 01:48:37;;;;;;;1.83;1.00;;;;;;;;;;6135910;29;20359;-60
2024/02/19 01:51:42;;;;;;;1.73;0.87;;;;;;;;;;6134820;29;20299;-60
2024/02/19 01:54:48;;;;;;;3.60;1.00;;;;;;;;;;6123560;29;20569;-60
2024/02/19 01:57:52;;;;;;;0.97;0.83;;;;;;;;;;6139435;29;20307;-60
2024/02/19 02:00:58;;;;;;;1.33;0.90;;;;;;;;;;6141275;29;20292;-62
2024/02/19 02:04:03;;;;;;;1.90;1.07;;;;;;;;;;6140860;29;20297;-60
2024/02/19 02:07:07;;;;;;;1.37;0.80;;;;;;;;;;6141519;29;20314;-60
2024/02/19 02:10:12;;;;;;;0.87;0.87;;;;;;;;;;6141098;29;20322;-60
2024/02/19 02:13:18;;;;;;;3.33;0.93;;;;;;;;;;6140065;29;20302;-60
2024/02/19 02:16:26;;;;;;;1.20;1.00;;;;;;;;;;6138937;29;20322;-60
2024/02/19 02:19:30;;;;;;;2.07;1.00;;;;;;;;;;6140735;29;20298;-60
2024/02/19 02:22:35;;;;;;;3.17;1.00;;;;;;;;;;6140770;29;20295;-60
2024/02/19 02:25:40;;;;;;;3.03;1.00;;;;;;;;;;6141377;29;20302;-60
2024/02/19 02:28:46;;;;;;;3.97;1.67;;;;;;;;;;6140977;29;20482;-60
2024/02/19 02:31:49;;;;;;;1.40;0.90;;;;;;;;;;6139575;29;20595;-61
2024/02/19 02:34:53;;;;;;;1.70;1.20;;;;;;;;;;6140361;29;20290;-61
2024/02/19 02:37:59;;;;;;;1.00;1.00;;;;;;;;;;6140479;29;20299;-61
2024/02/19 02:41:03;;;;;;;3.90;1.10;;;;;;;;;;6140861;29;20535;-60
2024/02/19 02:44:08;;;;;;;1.10;0.93;;;;;;;;;;6138915;29;20291;-60
2024/02/19 02:47:12;;;;;;;3.27;1.40;;;;;;;;;;6141073;29;20295;-61
2024/02/19 02:50:16;;;;;;;2.53;0.90;;;;;;;;;;6140449;29;20298;-60
2024/02/19 02:53:21;;;;;;;2.43;1.10;;;;;;;;;;6126587;29;20299;-61
2024/02/19 02:56:25;;;;;;;4.10;1.23;;;;;;;;;;6139974;29;20299;-60
2024/02/19 02:59:30;;;;;;;3.50;1.17;;;;;;;;;;6139601;29;20317;-60
2024/02/19 03:02:34;;;;;;;3.43;1.10;;;;;;;;;;6139564;29;20567;-61
2024/02/19 03:05:38;;;;;;;2.00;1.20;;;;;;;;;;6140086;29;20559;-60
2024/02/19 03:08:42;;;;;;;1.70;1.10;;;;;;;;;;6139167;29;20295;-61
2024/02/19 03:11:46;;;;;;;1.30;1.20;;;;;;;;;;6139997;29;20291;-60
2024/02/19 03:14:51;;;;;;;1.30;1.30;;;;;;;;;;6139205;29;20254;-60
2024/02/19 03:17:55;;;;;;;1.80;1.30;;;;;;;;;;6139449;29;20298;-61
2024/02/19 03:21:00;;;;;;;2.50;1.47;;;;;;;;;;6139770;29;20532;-60
2024/02/19 03:24:04;;;;;;;2.00;1.63;;;;;;;;;;6139398;29;20314;-60
2024/02/19 03:27:08;;;;;;;1.50;1.40;;;;;;;;;;6139696;29;20294;-60
2024/02/19 03:30:13;;;;;;;1.87;1.77;;;;;;;;;;6137583;29;20299;-61
2024/02/19 03:33:17;;;;;;;3.00;1.80;;;;;;;;;;6137993;29;20303;-60
2024/02/19 03:36:22;;;;;;;2.13;1.83;;;;;;;;;;6139184;29;20353;-60
2024/02/19 03:39:26;;;;;;;1.90;1.80;;;;;;;;;;6139387;29;20299;-60
2024/02/19 03:42:30;;;;;;;1.90;1.90;;;;;;;;;;6139137;29;20294;-61
2024/02/19 03:45:35;;;;;;;2.37;2.10;;;;;;;;;;6138070;29;20382;-60
2024/02/19 03:48:39;;;;;;;2.13;2.13;;;;;;;;;;6138252;29;20295;-61
2024/02/19 03:51:43;;;;;;;2.60;2.50;;;;;;;;;;6137545;29;20376;-60
2024/02/19 03:54:47;;;;;;;2.30;2.20;;;;;;;;;;6126487;29;20303;-60
2024/02/19 03:57:51;;;;;;;2.20;2.10;;;;;;;;;;6138495;29;20489;-61
2024/02/19 04:00:57;;;;;;;3.63;2.70;;;;;;;;;;6131856;29;20296;-60
2024/02/19 04:04:01;;;;;;;2.83;2.60;;;;;;;;;;6121608;29;20298;-60
2024/02/19 04:07:05;;;;;;;2.87;2.67;;;;;;;;;;6127029;29;20296;-60
2024/02/19 04:10:10;;;;;;;2.53;2.43;;;;;;;;;;6116288;29;20294;-60
2024/02/19 04:13:14;;;;;;;2.77;2.60;;;;;;;;;;6138130;29;20295;-61
2024/02/19 04:16:19;;;;;;;2.57;2.47;;;;;;;;;;6138277;29;20599;-60
2024/02/19 04:19:24;;;;;;;3.87;2.37;;;;;;;;;;6129812;29;20304;-61
2024/02/19 04:22:28;;;;;;;2.63;2.53;;;;;;;;;;6115062;29;20444;-61
2024/02/19 04:25:32;;;;;;;2.30;2.30;;;;;;;;;;6114141;29;20304;-60
2024/02/19 04:28:36;;;;;;;2.77;2.57;;;;;;;;;;6113968;29;20303;-60
2024/02/19 04:31:42;;;;;;;2.90;2.80;;;;;;;;;;6114561;29;20312;-60
2024/02/19 04:34:45;;;;;;;2.80;2.70;;;;;;;;;;6113874;29;20299;-61
2024/02/19 04:37:50;;;;;;;3.27;2.90;;;;;;;;;;6131901;29;20302;-62
2024/02/19 04:40:53;;;;;;;2.97;2.73;;;;;;;;;;6138008;29;20317;-61
2024/02/19 04:43:57;;;;;;;2.87;2.83;;;;;;;;;;6137395;29;20312;-61
2024/02/19 04:47:05;;;;;;;3.27;3.00;;;;;;;;;;6137588;29;20303;-61
2024/02/19 04:50:10;;;;;;;3.30;3.20;;;;;;;;;;6137385;29;20407;-61
2024/02/19 04:53:18;;;;;;;3.70;3.40;;;;;;;;;;6137044;29;20308;-61
2024/02/19 04:56:22;;;;;;;3.10;3.00;;;;;;;;;;6090577;29;20320;-61
2024/02/19 04:59:26;;;;;;;3.93;3.73;;;;;;;;;;6090121;29;20609;-61
2024/02/19 05:02:31;;;;;;;3.97;3.87;;;;;;;;;;6090296;29;20300;-60
2024/02/19 05:05:35;;;;;;;4.00;3.73;;;;;;;;;;6089424;29;20496;-60
2024/02/19 05:08:39;;;;;;;4.30;4.00;;;;;;;;;;6089496;29;20318;-60
2024/02/19 05:11:43;;;;;;;4.23;4.00;;;;;;;;;;6122615;29;20299;-60
2024/02/19 05:14:47;;;;;;;4.37;3.97;;;;;;;;;;6137041;29;20309;-60
2024/02/19 05:17:52;;;;;;;4.43;4.10;;;;;;;;;;6136582;29;20469;-61
2024/02/19 05:20:56;;;;;;;4.63;4.33;;;;;;;;;;6137060;29;20602;-60
2024/02/19 05:24:00;;;;;;;4.70;4.43;;;;;;;;;;6136563;29;20262;-63
2024/02/19 05:27:04;;;;;;;4.50;4.30;;;;;;;;;;6136160;29;20295;-60
2024/02/19 05:30:10;;;;;;;4.13;3.93;;;;;;;;;;6136655;29;20300;-60
2024/02/19 05:33:18;;;;;;;4.80;4.47;;;;;;;;;;6136519;29;20299;-60
2024/02/19 05:36:22;;;;;;;4.10;4.00;;;;;;;;;;6137263;29;20299;-60
2024/02/19 05:39:25;;;;;;;4.90;4.60;;;;;;;;;;6136323;29;20307;-61
2024/02/19 05:42:29;;;;;;;4.67;4.27;;;;;;;;;;6136866;29;20310;-60
2024/02/19 05:45:35;;;;;;;4.70;4.40;;;;;;;;;;6136055;29;20311;-59
2024/02/19 05:48:40;;;;;;;4.57;4.37;;;;;;;;;;6136375;29;20307;-60
2024/02/19 05:51:45;;;;;;;4.13;3.93;;;;;;;;;;6136579;29;20295;-60
2024/02/19 05:54:49;;;;;;;5.63;4.80;;;;;;;;;;6123878;29;20465;-60
2024/02/19 05:57:53;;;;;;;4.50;4.10;;;;;;;;;;6112590;29;20288;-60
2024/02/19 06:00:57;;;;;;;4.40;4.20;;;;;;;;;;6112963;29;20568;-60
2024/02/19 06:04:02;;;;;;;4.37;4.17;;;;;;;;;;6112388;29;20303;-61
2024/02/19 06:07:06;;;;;;;4.87;4.40;;;;;;;;;;6112830;29;20477;-60
2024/02/19 06:10:11;;;;;;;4.27;4.00;;;;;;;;;;6115846;29;20302;-60
2024/02/19 06:13:15;;;;;;;4.17;4.07;;;;;;;;;;6136038;29;20587;-60
2024/02/19 06:16:19;;;;;;;4.67;4.27;;;;;;;;;;6136830;29;20478;-61
2024/02/19 06:19:25;;;;;;;4.30;4.10;;;;;;;;;;6136029;29;20301;-61
2024/02/19 06:22:29;;;;;;;4.30;4.10;;;;;;;;;;6136512;29;20311;-60
2024/02/19 06:25:33;;;;;;;4.50;4.30;;;;;;;;;;6136029;29;20307;-62
2024/02/19 06:28:37;;;;;;;4.30;4.10;;;;;;;;;;6136155;29;20303;-62
2024/02/19 06:31:44;;;;;;;4.90;4.50;;;;;;;;;;6136649;29;20299;-60
2024/02/19 06:34:49;;;;;;;4.87;4.57;;;;;;;;;;6135523;29;20306;-64
2024/02/19 06:37:53;;;;;;;4.60;4.40;;;;;;;;;;6135325;29;20465;-60
2024/02/19 06:40:57;;;;;;;4.67;4.47;;;;;;;;;;6136206;29;20584;-62
2024/02/19 06:44:01;;;;;;;5.00;4.60;;;;;;;;;;6138715;29;20294;-62
2024/02/19 06:47:05;;;;;;;5.00;4.70;;;;;;;;;;6140306;29;20294;-59
2024/02/19 06:50:11;;;;;;;5.27;4.87;;;;;;;;;;6140099;29;20311;-61
2024/02/19 06:53:15;;;;;;;5.00;4.60;;;;;;;;;;6140339;29;20309;-62
2024/02/19 06:56:18;;;;;;;5.47;4.93;;;;;;;;;;6093408;29;20304;-62
2024/02/19 06:59:22;;;;;;;7.17;4.90;;;;;;;;;;6092445;29;20307;-62
2024/02/19 07:02:26;;;;;;;6.53;5.13;;;;;;;;;;6093362;29;20300;-61
2024/02/19 07:05:31;;;;;;;5.53;5.13;;;;;;;;;;6092649;29;20495;-60
2024/02/19 07:08:37;;;;;;;5.77;5.27;;;;;;;;;;6092795;29;20280;-60
2024/02/19 07:11:41;;;;;;;5.40;4.90;;;;;;;;;;6124956;29;20299;-60
2024/02/19 07:14:45;;;;;;;5.67;5.17;;;;;;;;;;6139794;29;20291;-61
2024/02/19 07:17:50;;;;;;;6.43;5.33;;;;;;;;;;6139867;29;20296;-60
2024/02/19 07:20:55;;;;;;;5.47;5.07;;;;;;;;;;6139682;29;20574;-60
2024/02/19 07:23:59;;;;;;;6.00;5.50;;;;;;;;;;6139711;29;20303;-60
2024/02/19 07:27:04;;;;;;;5.90;5.40;;;;;;;;;;6140127;29;20292;-60
2024/02/19 07:30:10;;;;;;;5.10;4.80;;;;;;;;;;6139458;29;20379;-61
2024/02/19 07:33:14;;;;;;;5.63;5.13;;;;;;;;;;6139150;29;20295;-60
2024/02/19 07:36:19;;;;;;;5.47;4.97;;;;;;;;;;6139816;29;20302;-60
2024/02/19 07:39:23;;;;;;;6.20;5.63;;;;;;;;;;6137853;29;20291;-61
2024/02/19 07:42:27;;;;;;;7.10;4.90;;;;;;;;;;6139554;29;20559;-60
2024/02/19 07:45:31;;;;;;;5.90;5.40;;;;;;;;;;6138991;29;20303;-60
2024/02/19 07:48:35;;;;;;;5.70;5.30;;;;;;;;;;6138702;29;20320;-61
2024/02/19 07:51:40;;;;;;;5.57;5.17;;;;;;;;;;6139584;29;20397;-60
2024/02/19 07:54:44;;;;;;;6.00;5.40;;;;;;;;;;6125846;29;20303;-60
2024/02/19 07:57:48;;;;;;;5.37;5.00;;;;;;;;;;6115222;29;20299;-61
2024/02/19 08:00:52;;;;;;;6.37;5.40;;;;;;;;;;6115032;29;20458;-61
2024/02/19 08:03:56;;;;;;;5.50;5.00;;;;;;;;;;6115122;29;20299;-62
2024/02/19 08:07:02;;;;;;;5.73;5.30;;;;;;;;;;6115397;29;20302;-62
2024/02/19 08:10:07;;;;;;;6.43;5.70;;;;;;;;;;6118510;29;20296;-62
2024/02/19 08:13:12;;;;;;;9.33;5.30;;;;;;;;;;6138268;29;20422;-62
2024/02/19 08:16:16;;;;;;;6.07;5.43;;;;;;;;;;6138892;29;20354;-60
2024/02/19 08:19:21;;;;;;;6.37;5.77;;;;;;;;;;6138273;29;20378;-60
2024/02/19 08:22:26;;;;;;;7.60;5.73;;;;;;;;;;6138478;29;20384;-60
2024/02/19 08:25:30;;;;;;;6.17;5.57;;;;;;;;;;6137740;29;20327;-61
2024/02/19 08:28:35;;;;;;;6.87;5.67;;;;;;;;;;6137347;29;20303;-60
2024/02/19 08:31:40;;;;;;;6.13;5.53;;;;;;;;;;6136943;29;20302;-61
2024/02/19 08:34:44;;;;;;;6.20;5.57;;;;;;;;;;6137898;29;20306;-60
2024/02/19 08:37:49;;;;;;;5.73;5.23;;;;;;;;;;6138069;29;20468;-61
2024/02/19 08:40:54;;;;;;;6.00;5.30;;;;;;;;;;6136972;29;20296;-61
2024/02/19 08:43:58;;;;;;;5.70;5.20;;;;;;;;;;6137481;29;20303;-61
2024/02/19 08:47:07;;;;;;;6.67;5.67;;;;;;;;;;6138095;29;20306;-61
2024/02/19 08:50:14;;;;;;;5.57;5.07;;;;;;;;;;6137204;29;20306;-60
2024/02/19 08:53:20;;;;;;;5.30;4.87;;;;;;;;;;6136886;29;20307;-61
2024/02/19 08:56:25;;;;;;;6.03;5.43;;;;;;;;;;6114258;29;20568;-61
2024/02/19 08:59:30;;;;;;;5.57;5.07;;;;;;;;;;6113329;29;20311;-61
2024/02/19 09:02:34;;;;;;;5.77;5.27;;;;;;;;;;6113641;29;20308;-60
2024/02/19 09:05:38;;;;;;;6.03;5.43;;;;;;;;;;6113314;29;20300;-62
2024/02/19 09:08:44;;;;;;;5.63;5.23;;;;;;;;;;6112870;29;20340;-62
2024/02/19 09:11:47;;;;;;;5.77;5.33;;;;;;;;;;6130133;29;20304;-59
2024/02/19 09:14:52;;;;;;;5.87;5.23;;;;;;;;;;6136789;29;20427;-62
2024/02/19 09:17:56;;;;;;;7.23;5.43;;;;;;;;;;6136626;29;20296;-60
2024/02/19 09:21:01;;;;;;;7.07;5.67;;;;;;;;;;6136827;29;20303;-60
2024/02/19 09:24:06;;;;;;;5.20;4.80;;;;;;;;;;6136787;29;20483;-61
2024/02/19 09:27:10;;;;;;;5.87;5.37;;;;;;;;;;6137179;29;20296;-60
2024/02/19 09:30:15;;;;;;;5.77;5.37;;;;;;;;;;6136665;29;20303;-60
2024/02/19 09:33:19;;;;;;;7.23;5.43;;;;;;;;;;6136410;29;20307;-60
2024/02/19 09:36:23;;;;;;;5.30;4.80;;;;;;;;;;6136904;29;20374;-60
2024/02/19 09:39:28;;;;;;;5.27;4.97;;;;;;;;;;6136262;29;20304;-60
2024/02/19 09:42:32;;;;;;;4.97;4.50;;;;;;;;;;6136597;29;20313;-60
2024/02/19 09:45:37;;;;;;;11.00;5.00;;;;;;;;;;6136134;29;20328;-61
2024/02/19 09:48:41;;;;;;;5.70;5.20;;;;;;;;;;6136069;29;20296;-61
2024/02/19 09:51:47;;;;;;;5.70;5.13;;;;;;;;;;6137114;29;20316;-61
2024/02/19 09:54:53;;;;;;;5.60;5.20;;;;;;;;;;6124056;29;20304;-62
2024/02/19 09:57:57;;;;;;;5.87;4.63;;;;;;;;;;6113062;29;20292;-62
2024/02/19 10:01:01;;;;;;;5.70;5.30;;;;;;;;;;6113409;29;20434;-60
2024/02/19 10:04:05;;;;;;;5.53;5.03;;;;;;;;;;6111265;29;20580;-61
2024/02/19 10:07:13;;;;;;;5.47;5.07;;;;;;;;;;6113479;29;20307;-60
2024/02/19 10:10:18;;;;;;;5.57;5.07;;;;;;;;;;6117744;29;20309;-61
2024/02/19 10:13:23;;;;;;;8.03;5.87;;;;;;;;;;6136516;29;20303;-61
2024/02/19 10:16:27;;;;;;;6.70;6.13;;;;;;;;;;6136704;29;20348;-61
2024/02/19 10:19:31;;;;;;;6.20;5.70;;;;;;;;;;6140038;29;20390;-61
2024/02/19 10:22:35;;;;;;;6.03;5.53;;;;;;;;;;6141175;29;20415;-62
2024/02/19 10:25:40;;;;;;;6.23;5.73;;;;;;;;;;6140860;29;20297;-61
2024/02/19 10:28:45;;;;;;;6.57;5.90;;;;;;;;;;6140693;29;20588;-61
2024/02/19 10:31:49;;;;;;;8.13;6.30;;;;;;;;;;6140566;29;20297;-62
2024/02/19 10:34:54;;;;;;;7.80;6.40;;;;;;;;;;6140372;29;20297;-61
2024/02/19 10:37:59;;;;;;;6.50;5.93;;;;;;;;;;6140425;29;20571;-61
2024/02/19 10:41:04;;;;;;;6.87;6.20;;;;;;;;;;6140842;29;20302;-62
2024/02/19 10:44:08;;;;;;;6.37;5.63;;;;;;;;;;6140016;29;20318;-60
2024/02/19 10:47:12;;;;;;;6.83;6.13;;;;;;;;;;6140389;29;20300;-62
2024/02/19 10:50:18;;;;;;;6.87;6.20;;;;;;;;;;6140142;29;20462;-62
2024/02/19 10:53:22;;;;;;;7.17;6.47;;;;;;;;;;6139294;29;20313;-61
2024/02/19 10:56:35;;;;;;;7.40;6.20;;;;;;;;;;6117494;29;20301;-62
2024/02/19 10:59:41;;;;;;;7.67;6.30;;;;;;;;;;6117139;29;20297;-61
2024/02/19 11:02:47;;;;;;;9.27;7.00;;;;;;;;;;6115590;29;20578;-61
2024/02/19 11:05:51;;;;;;;9.47;7.40;;;;;;;;;;6116358;29;20470;-61
2024/02/19 11:08:55;;;;;;;7.73;6.40;;;;;;;;;;6116679;29;20291;-62
2024/02/19 11:12:05;;;;;;;7.70;6.93;;;;;;;;;;6108867;29;20483;-62
2024/02/19 11:15:16;;;;;;;6.63;6.13;;;;;;;;;;6139575;29;20296;-62
2024/02/19 11:18:22;;;;;;;8.67;6.73;;;;;;;;;;6139153;29;20470;-62
2024/02/19 11:21:26;;;;;;;6.93;6.33;;;;;;;;;;6139750;29;20300;-61
2024/02/19 11:24:31;;;;;;;7.63;6.83;;;;;;;;;;6139115;29;20315;-62
2024/02/19 11:27:36;;;;;;;7.47;6.53;;;;;;;;;;6139567;29;20291;-61
2024/02/19 11:30:40;;;;;;;7.30;6.60;;;;;;;;;;6138950;29;20306;-61
2024/02/19 11:33:49;;;;;;;7.10;6.40;;;;;;;;;;6139072;29;20304;-61
2024/02/19 11:36:53;;;;;;;6.77;6.17;;;;;;;;;;6139731;29;20296;-61
2024/02/19 11:39:56;;;;;;;7.13;6.50;;;;;;;;;;6139154;29;20300;-61
2024/02/19 11:43:03;;;;;;;7.60;6.90;;;;;;;;;;6138510;29;20296;-61
2024/02/19 11:46:07;;;;;;;7.63;6.63;;;;;;;;;;6138825;29;20271;-61
2024/02/19 11:49:12;;;;;;;6.93;6.30;;;;;;;;;;6138623;29;20306;-61
2024/02/19 11:52:16;;;;;;;6.90;6.33;;;;;;;;;;6139107;29;20321;-61
2024/02/19 11:55:21;;;;;;;7.60;6.57;;;;;;;;;;6121995;29;20314;-61
2024/02/19 11:58:29;;;;;;;9.27;6.97;;;;;;;;;;6115019;29;20600;-61
2024/02/19 12:01:34;;;;;;;7.00;6.40;;;;;;;;;;6115431;29;20605;-62
2024/02/19 12:04:38;;;;;;;8.27;6.87;;;;;;;;;;6114750;29;20299;-61
2024/02/19 12:07:43;;;;;;;7.70;6.93;;;;;;;;;;6115240;29;20302;-62
2024/02/19 12:10:47;;;;;;;7.27;6.60;;;;;;;;;;6123348;29;20308;-62
2024/02/19 12:13:52;;;;;;;7.20;6.60;;;;;;;;;;6137133;29;20305;-62
2024/02/19 12:16:58;;;;;;;8.90;7.10;;;;;;;;;;6138761;29;20306;-62
2024/02/19 12:20:02;;;;;;;8.27;7.10;;;;;;;;;;6138156;29;20369;-62
2024/02/19 12:23:07;;;;;;;7.80;7.00;;;;;;;;;;6137886;29;20295;-62
2024/02/19 12:26:12;;;;;;;7.53;6.83;;;;;;;;;;6138535;29;20384;-60
2024/02/19 12:29:17;;;;;;;7.27;6.67;;;;;;;;;;6138047;29;20299;-60
2024/02/19 12:32:21;;;;;;;7.13;6.47;;;;;;;;;;6138498;29;20308;-61
2024/02/19 12:35:25;;;;;;;6.93;6.20;;;;;;;;;;6137803;29;20292;-60
2024/02/19 12:38:30;;;;;;;6.73;6.23;;;;;;;;;;6137583;29;20309;-61
2024/02/19 12:41:34;;;;;;;6.77;6.10;;;;;;;;;;6137673;29;20321;-61
2024/02/19 12:44:39;;;;;;;7.00;6.20;;;;;;;;;;6116593;29;20297;-61
2024/02/19 12:47:43;;;;;;;6.60;5.77;;;;;;;;;;6090957;29;20613;-61
2024/02/19 12:50:47;;;;;;;6.90;6.30;;;;;;;;;;6090566;29;20308;-60
2024/02/19 12:53:52;;;;;;;8.10;6.70;;;;;;;;;;6099466;29;20280;-60
2024/02/19 12:56:56;;;;;;;7.80;6.63;;;;;;;;;;6137753;29;20549;-60
2024/02/19 13:00:06;;;;;;;10.00;7.13;;;;;;;;;;6136797;29;20295;-61
2024/02/19 13:03:11;;;;;;;8.67;6.67;;;;;;;;;;6137116;29;20303;-61
2024/02/19 13:06:14;;;;;;;6.50;6.00;;;;;;;;;;6137733;29;20309;-61
2024/02/19 13:09:19;;;;;;;7.17;6.57;;;;;;;;;;6137133;29;20304;-61
2024/02/19 13:12:23;;;;;;;6.90;6.20;;;;;;;;;;6115722;29;20308;-61
2024/02/19 13:15:29;;;;;;;6.50;5.90;;;;;;;;;;6113675;29;20310;-61
2024/02/19 13:18:32;;;;;;;7.33;6.43;;;;;;;;;;6113353;29;20339;-61
2024/02/19 13:21:37;;;;;;;7.07;6.30;;;;;;;;;;6113736;29;20299;-61
2024/02/19 13:24:40;;;;;;;6.30;5.73;;;;;;;;;;6112991;29;20306;-61
2024/02/19 13:27:45;;;;;;;6.60;6.00;;;;;;;;;;6113490;29;20295;-61
2024/02/19 13:30:50;;;;;;;6.83;6.23;;;;;;;;;;6112453;29;20374;-61
2024/02/19 13:33:54;;;;;;;6.23;5.53;;;;;;;;;;6112739;29;20301;-61
2024/02/19 13:36:59;;;;;;;6.17;5.67;;;;;;;;;;6113247;29;20302;-61
2024/02/19 13:40:04;;;;;;;7.00;6.10;;;;;;;;;;6112795;29;20302;-61
2024/02/19 13:43:09;;;;;;;6.33;5.73;;;;;;;;;;6112606;29;20297;-61
2024/02/19 13:46:16;;;;;;;6.63;5.97;;;;;;;;;;6112980;29;20625;-61
2024/02/19 13:49:21;;;;;;;6.43;5.80;;;;;;;;;;6112975;29;20479;-60
2024/02/19 13:52:25;;;;;;;6.43;5.47;;;;;;;;;;6113950;29;20300;-60
2024/02/19 13:55:29;;;;;;;6.87;6.20;;;;;;;;;;6134932;29;20301;-60
2024/02/19 13:58:33;;;;;;;7.93;6.33;;;;;;;;;;6141351;29;20304;-60
2024/02/19 14:01:38;;;;;;;6.43;5.83;;;;;;;;;;6141653;29;20290;-60
2024/02/19 14:04:45;;;;;;;6.63;5.93;;;;;;;;;;6140984;29;20576;-61
2024/02/19 14:07:49;;;;;;;6.37;5.77;;;;;;;;;;6141251;29;20302;-63
2024/02/19 14:10:55;;;;;;;6.03;5.50;;;;;;;;;;6131155;29;20297;-60
2024/02/19 14:13:59;;;;;;;6.80;5.93;;;;;;;;;;6117103;29;20297;-60
2024/02/19 14:17:07;;;;;;;6.60;5.73;;;;;;;;;;6117888;29;20473;-60
2024/02/19 14:20:15;;;;;;;6.03;5.53;;;;;;;;;;6117280;29;20303;-61
2024/02/19 14:23:20;;;;;;;6.87;6.17;;;;;;;;;;6116737;29;20307;-60
2024/02/19 14:26:25;;;;;;;6.33;5.83;;;;;;;;;;6117286;29;20538;-60
2024/02/19 14:29:29;;;;;;;6.77;6.13;;;;;;;;;;6116890;29;20306;-61
2024/02/19 14:32:35;;;;;;;6.83;5.97;;;;;;;;;;6117603;29;20296;-61
2024/02/19 14:35:39;;;;;;;6.73;6.10;;;;;;;;;;6116769;29;20297;-61
2024/02/19 14:38:43;;;;;;;6.10;5.60;;;;;;;;;;6116519;29;20534;-61
2024/02/19 14:41:46;;;;;;;6.17;5.67;;;;;;;;;;6117107;29;20298;-61
2024/02/19 14:44:51;;;;;;;6.40;5.73;;;;;;;;;;6116151;29;20298;-62
2024/02/19 14:47:57;;;;;;;6.47;5.87;;;;;;;;;;6116391;29;20295;-62
2024/02/19 14:51:01;;;;;;;5.67;5.17;;;;;;;;;;6116736;29;20302;-61
2024/02/19 14:54:05;;;;;;;6.03;5.53;;;;;;;;;;6122286;29;20632;-61
2024/02/19 14:57:08;;;;;;;5.27;4.83;;;;;;;;;;6140774;29;20301;-61
2024/02/19 15:00:20;;;;;;;5.07;4.77;;;;;;;;;;6140066;29;20296;-62
2024/02/19 15:03:26;;;;;;;5.40;5.07;;;;;;;;;;6139349;29;20593;-61
2024/02/19 15:06:30;;;;;;;5.53;5.13;;;;;;;;;;6139761;29;20319;-61
2024/02/19 15:09:34;;;;;;;5.80;5.30;;;;;;;;;;6139771;29;20303;-61
2024/02/19 15:12:38;;;;;;;5.17;4.77;;;;;;;;;;6117010;29;20489;-61
2024/02/19 15:15:42;;;;;;;5.50;5.13;;;;;;;;;;6116094;29;20486;-61
2024/02/19 15:18:47;;;;;;;5.40;5.00;;;;;;;;;;6116188;29;20302;-61
2024/02/19 15:21:52;;;;;;;5.20;4.80;;;;;;;;;;6116568;29;20297;-61
2024/02/19 15:24:56;;;;;;;5.17;4.67;;;;;;;;;;6115638;29;20314;-61
2024/02/19 15:28:00;;;;;;;5.13;4.77;;;;;;;;;;6114948;29;20293;-62
2024/02/19 15:31:04;;;;;;;5.17;4.77;;;;;;;;;;6116194;29;20292;-62
2024/02/19 15:34:10;;;;;;;5.00;4.70;;;;;;;;;;6115454;29;20292;-60
2024/02/19 15:37:14;;;;;;;5.53;5.13;;;;;;;;;;6116157;29;20294;-60
2024/02/19 15:40:20;;;;;;;5.33;4.93;;;;;;;;;;6115746;29;20490;-60
2024/02/19 15:43:24;;;;;;;5.10;4.80;;;;;;;;;;6115116;29;20313;-60
2024/02/19 15:46:28;;;;;;;5.30;4.80;;;;;;;;;;6115941;29;20307;-61
2024/02/19 15:49:33;;;;;;;5.20;4.90;;;;;;;;;;6115513;29;20301;-60
2024/02/19 15:52:37;;;;;;;5.77;5.33;;;;;;;;;;6115516;29;20490;-61
2024/02/19 15:55:41;;;;;;;5.67;5.07;;;;;;;;;;6133809;29;20306;-60
2024/02/19 15:58:47;;;;;;;6.00;5.50;;;;;;;;;;6138730;29;20482;-62
2024/02/19 16:01:51;;;;;;;5.97;5.40;;;;;;;;;;6138356;29;20304;-60
2024/02/19 16:05:00;;;;;;;7.23;5.70;;;;;;;;;;6138389;29;20295;-60
2024/02/19 16:08:38;;;;;;;6.13;5.53;;;;;;;;;;6138032;29;20393;-61
2024/02/19 16:11:42;;;;;;;5.87;5.37;;;;;;;;;;6122375;29;20297;-61
2024/02/19 16:14:46;;;;;;;5.53;5.13;;;;;;;;;;6113932;29;20620;-61
2024/02/19 16:17:50;;;;;;;5.80;5.40;;;;;;;;;;6115068;29;20321;-61
2024/02/19 16:20:55;;;;;;;4.87;4.60;;;;;;;;;;6114390;29;20305;-62
2024/02/19 16:23:59;;;;;;;4.50;4.10;;;;;;;;;;6114287;29;20439;-60
2024/02/19 16:27:03;;;;;;;4.90;4.50;;;;;;;;;;6114845;29;20488;-60
2024/02/19 16:30:08;;;;;;;4.97;4.57;;;;;;;;;;6114573;29;20295;-60
2024/02/19 16:33:13;;;;;;;5.23;4.73;;;;;;;;;;6114395;29;20296;-61
2024/02/19 16:36:20;;;;;;;5.00;4.60;;;;;;;;;;6114598;29;20378;-61
2024/02/19 16:39:25;;;;;;;4.67;4.27;;;;;;;;;;6114080;29;20300;-62
2024/02/19 16:42:34;;;;;;;5.07;4.67;;;;;;;;;;6114446;29;20303;-61
2024/02/19 16:45:38;;;;;;;5.10;4.80;;;;;;;;;;6114006;29;20313;-62
2024/02/19 16:48:43;;;;;;;5.60;5.20;;;;;;;;;;6113806;29;20321;-62
2024/02/19 16:51:49;;;;;;;5.43;5.03;;;;;;;;;;6114430;29;20297;-61
2024/02/19 16:54:54;;;;;;;5.47;5.07;;;;;;;;;;6126591;29;20308;-61
2024/02/19 16:57:58;;;;;;;5.77;5.30;;;;;;;;;;6137871;29;20290;-63
2024/02/19 17:01:04;;;;;;;4.67;4.47;;;;;;;;;;6138451;29;20291;-60
2024/02/19 17:04:08;;;;;;;5.20;4.47;;;;;;;;;;6137767;29;20497;-62
2024/02/19 17:07:16;;;;;;;4.57;4.37;;;;;;;;;;6138070;29;20596;-62
2024/02/19 17:10:21;;;;;;;4.13;4.03;;;;;;;;;;6131808;29;20306;-60
2024/02/19 17:13:24;;;;;;;4.30;4.00;;;;;;;;;;6113467;29;20307;-61
2024/02/19 17:16:29;;;;;;;4.47;4.20;;;;;;;;;;6113967;29;20297;-61
2024/02/19 17:19:33;;;;;;;3.90;3.73;;;;;;;;;;6113746;29;20313;-61
2024/02/19 17:22:39;;;;;;;4.20;4.00;;;;;;;;;;6113782;29;20296;-61
2024/02/19 17:25:42;;;;;;;4.27;4.07;;;;;;;;;;6113261;29;20303;-60
2024/02/19 17:28:46;;;;;;;4.43;4.07;;;;;;;;;;6112923;29;20599;-60
2024/02/19 17:31:51;;;;;;;3.97;3.87;;;;;;;;;;6113505;29;20570;-61
2024/02/19 17:34:55;;;;;;;4.63;4.30;;;;;;;;;;6113372;29;20301;-61
2024/02/19 17:38:02;;;;;;;4.20;3.90;;;;;;;;;;6112860;29;20293;-63
2024/02/19 17:41:06;;;;;;;4.90;4.53;;;;;;;;;;6113592;29;20289;-62
2024/02/19 17:44:10;;;;;;;4.50;4.20;;;;;;;;;;6112969;29;20318;-62
2024/02/19 17:47:14;;;;;;;4.90;4.60;;;;;;;;;;6113329;29;20398;-60
2024/02/19 17:50:19;;;;;;;4.53;4.30;;;;;;;;;;6112996;29;20295;-61
2024/02/19 17:53:24;;;;;;;4.77;4.47;;;;;;;;;;6113953;29;20304;-61
2024/02/19 17:56:28;;;;;;;4.93;4.67;;;;;;;;;;6137127;29;20299;-61
2024/02/19 17:59:34;;;;;;;4.97;4.67;;;;;;;;;;6136692;29;20304;-63
2024/02/19 18:02:38;;;;;;;5.30;5.00;;;;;;;;;;6136117;29;20321;-62
2024/02/19 18:05:42;;;;;;;5.37;4.87;;;;;;;;;;6136196;29;20299;-62
2024/02/19 18:08:49;;;;;;;5.40;5.00;;;;;;;;;;6136410;29;20440;-61
2024/02/19 18:11:53;;;;;;;5.23;4.83;;;;;;;;;;6119500;29;20591;-62
2024/02/19 18:14:58;;;;;;;5.40;4.97;;;;;;;;;;6112704;29;20303;-62
2024/02/19 18:18:03;;;;;;;5.63;5.23;;;;;;;;;;6112669;29;20292;-61
2024/02/19 18:21:09;;;;;;;5.90;5.40;;;;;;;;;;6112844;29;20296;-62
2024/02/19 18:24:15;;;;;;;5.47;4.97;;;;;;;;;;6112584;29;20308;-62
2024/02/19 18:27:18;;;;;;;6.33;5.13;;;;;;;;;;6113112;29;20356;-62